sensor_id;sensor_type;location;lat;lon;timestamp;temperature;humidity
24252;DHT22;12380;51.118;4.176;2022-08-21T00:00:44;15.80;99.90
24252;DHT22;12380;51.118;4.176;2022-08-21T00:03:11;15.80;99.90
24252;DHT22;12380;51.118;4.176;2022-08-21T00:05:44;15.70;99.90
24252;DHT22;12380;51.118;4.176;2022-08-21T00:08:11;15.80;99.90
24252;DHT22;12380;51.118;4.176;2022-08-21T00:10:38;15.80;99.90
24252;DHT22;12380;51.118;4.176;2022-08-21T00:13:04;15.80;99.90
24252;DHT22;12380;51.118;4.176;2022-08-21T00:15:31;15.80;99.90
24252;DHT22;12380;51.118;4.176;2022-08-21T00:18:00;15.70;99.90
24252;DHT22;12380;51.118;4.176;2022-08-21T00:20:25;15.80;99.90
24252;DHT22;12380;51.118;4.176;2022-08-21T00:22:51;15.70;99.90
24252;DHT22;12380;51.118;4.176;2022-08-21T00:25:17;15.60;99.90
24252;DHT22;12380;51.118;4.176;2022-08-21T00:27:43;15.60;99.90
24252;DHT22;12380;51.118;4.176;2022-08-21T00:30:10;15.60;99.90
24252;DHT22;12380;51.118;4.176;2022-08-21T00:32:37;15.50;99.90
24252;DHT22;12380;51.118;4.176;2022-08-21T00:35:04;15.50;99.90
24252;DHT22;12380;51.118;4.176;2022-08-21T00:37:31;15.40;99.90
24252;DHT22;12380;51.118;4.176;2022-08-21T00:39:58;15.40;99.90
24252;DHT22;12380;51.118;4.176;2022-08-21T00:42:25;15.30;99.90
24252;DHT22;12380;51.118;4.176;2022-08-21T00:44:51;15.40;99.90
24252;DHT22;12380;51.118;4.176;2022-08-21T00:47:18;15.30;99.90
24252;DHT22;12380;51.118;4.176;2022-08-21T00:49:45;15.30;99.90
24252;DHT22;12380;51.118;4.176;2022-08-21T00:52:12;15.30;99.90
24252;DHT22;12380;51.118;4.176;2022-08-21T00:54:38;15.30;99.90
24252;DHT22;12380;51.118;4.176;2022-08-21T00:57:05;15.30;99.90
24252;DHT22;12380;51.118;4.176;2022-08-21T00:59:34;15.30;99.90
24252;DHT22;12380;51.118;4.176;2022-08-21T01:02:01;15.20;99.90
24252;DHT22;12380;51.118;4.176;2022-08-21T01:04:28;15.20;99.90
24252;DHT22;12380;51.118;4.176;2022-08-21T01:06:53;15.30;99.90
24252;DHT22;12380;51.118;4.176;2022-08-21T01:09:20;15.30;99.90
24252;DHT22;12380;51.118;4.176;2022-08-21T01:11:46;15.30;99.90
24252;DHT22;12380;51.118;4.176;2022-08-21T01:14:12;15.30;99.90
24252;DHT22;12380;51.118;4.176;2022-08-21T01:16:43;15.20;99.90
24252;DHT22;12380;51.118;4.176;2022-08-21T01:19:10;15.20;99.90
24252;DHT22;12380;51.118;4.176;2022-08-21T01:21:36;15.30;99.90
24252;DHT22;12380;51.118;4.176;2022-08-21T01:24:02;15.30;99.90
24252;DHT22;12380;51.118;4.176;2022-08-21T01:26:29;15.30;99.90
24252;DHT22;12380;51.118;4.176;2022-08-21T01:29:00;15.20;99.90
24252;DHT22;12380;51.118;4.176;2022-08-21T01:31:27;15.20;99.90
24252;DHT22;12380;51.118;4.176;2022-08-21T01:33:53;15.10;99.90
24252;DHT22;12380;51.118;4.176;2022-08-21T01:36:21;15.00;99.90
24252;DHT22;12380;51.118;4.176;2022-08-21T01:38:47;15.00;99.90
24252;DHT22;12380;51.118;4.176;2022-08-21T01:41:14;15.00;99.90
24252;DHT22;12380;51.118;4.176;2022-08-21T01:43:40;15.00;99.90
24252;DHT22;12380;51.118;4.176;2022-08-21T01:46:07;14.90;99.90
24252;DHT22;12380;51.118;4.176;2022-08-21T01:48:32;14.90;99.90
24252;DHT22;12380;51.118;4.176;2022-08-21T01:50:58;15.00;99.90
24252;DHT22;12380;51.118;4.176;2022-08-21T01:53:24;15.00;99.90
24252;DHT22;12380;51.118;4.176;2022-08-21T01:55:50;15.00;99.90
24252;DHT22;12380;51.118;4.176;2022-08-21T01:58:16;15.00;99.90
24252;DHT22;12380;51.118;4.176;2022-08-21T02:00:42;14.90;99.90
24252;DHT22;12380;51.118;4.176;2022-08-21T02:03:08;14.90;99.90
24252;DHT22;12380;51.118;4.176;2022-08-21T02:05:34;14.90;99.90
24252;DHT22;12380;51.118;4.176;2022-08-21T02:08:01;14.80;99.90
24252;DHT22;12380;51.118;4.176;2022-08-21T02:10:28;14.70;99.90
24252;DHT22;12380;51.118;4.176;2022-08-21T02:12:55;14.70;99.90
24252;DHT22;12380;51.118;4.176;2022-08-21T02:15:21;14.80;99.90
24252;DHT22;12380;51.118;4.176;2022-08-21T02:17:52;14.80;99.90
24252;DHT22;12380;51.118;4.176;2022-08-21T02:20:20;14.70;99.90
24252;DHT22;12380;51.118;4.176;2022-08-21T02:22:46;14.70;99.90
24252;DHT22;12380;51.118;4.176;2022-08-21T02:25:13;14.70;99.90
24252;DHT22;12380;51.118;4.176;2022-08-21T02:27:39;14.60;99.90
24252;DHT22;12380;51.118;4.176;2022-08-21T02:30:06;14.60;99.90
24252;DHT22;12380;51.118;4.176;2022-08-21T02:32:32;14.60;99.90
24252;DHT22;12380;51.118;4.176;2022-08-21T02:34:58;14.70;99.90
24252;DHT22;12380;51.118;4.176;2022-08-21T02:37:24;14.60;99.90
24252;DHT22;12380;51.118;4.176;2022-08-21T02:39:50;14.60;99.90
24252;DHT22;12380;51.118;4.176;2022-08-21T02:42:16;14.60;99.90
24252;DHT22;12380;51.118;4.176;2022-08-21T02:44:43;14.60;99.90
24252;DHT22;12380;51.118;4.176;2022-08-21T02:47:08;14.60;99.90
24252;DHT22;12380;51.118;4.176;2022-08-21T02:49:34;14.70;99.90
24252;DHT22;12380;51.118;4.176;2022-08-21T02:52:00;14.70;99.90
24252;DHT22;12380;51.118;4.176;2022-08-21T02:54:27;14.60;99.90
24252;DHT22;12380;51.118;4.176;2022-08-21T02:56:55;14.60;99.90
24252;DHT22;12380;51.118;4.176;2022-08-21T02:59:21;14.60;99.90
24252;DHT22;12380;51.118;4.176;2022-08-21T03:01:47;14.70;99.90
24252;DHT22;12380;51.118;4.176;2022-08-21T03:04:13;14.80;99.90
24252;DHT22;12380;51.118;4.176;2022-08-21T03:06:39;14.70;99.90
24252;DHT22;12380;51.118;4.176;2022-08-21T03:09:05;14.70;99.90
24252;DHT22;12380;51.118;4.176;2022-08-21T03:11:31;14.70;99.90
24252;DHT22;12380;51.118;4.176;2022-08-21T03:13:57;14.70;99.90
24252;DHT22;12380;51.118;4.176;2022-08-21T03:16:23;14.60;99.90
24252;DHT22;12380;51.118;4.176;2022-08-21T03:18:49;14.50;99.90
24252;DHT22;12380;51.118;4.176;2022-08-21T03:21:15;14.50;99.90
24252;DHT22;12380;51.118;4.176;2022-08-21T03:23:42;14.50;99.90
24252;DHT22;12380;51.118;4.176;2022-08-21T03:26:08;14.60;99.90
24252;DHT22;12380;51.118;4.176;2022-08-21T03:28:35;14.50;99.90
24252;DHT22;12380;51.118;4.176;2022-08-21T03:31:02;14.70;99.90
24252;DHT22;12380;51.118;4.176;2022-08-21T03:33:28;14.70;99.90
24252;DHT22;12380;51.118;4.176;2022-08-21T03:36:03;14.70;99.90
24252;DHT22;12380;51.118;4.176;2022-08-21T03:38:29;14.60;99.90
24252;DHT22;12380;51.118;4.176;2022-08-21T03:40:56;14.60;99.90
24252;DHT22;12380;51.118;4.176;2022-08-21T03:43:22;14.60;99.90
24252;DHT22;12380;51.118;4.176;2022-08-21T03:45:48;14.60;99.90
24252;DHT22;12380;51.118;4.176;2022-08-21T03:48:14;14.50;99.90
24252;DHT22;12380;51.118;4.176;2022-08-21T03:50:41;14.50;99.90
24252;DHT22;12380;51.118;4.176;2022-08-21T03:53:08;14.50;99.90
24252;DHT22;12380;51.118;4.176;2022-08-21T03:55:34;14.50;99.90
24252;DHT22;12380;51.118;4.176;2022-08-21T03:58:00;14.60;99.90
24252;DHT22;12380;51.118;4.176;2022-08-21T04:00:26;14.60;99.90
24252;DHT22;12380;51.118;4.176;2022-08-21T04:02:52;14.50;99.90
24252;DHT22;12380;51.118;4.176;2022-08-21T04:05:18;14.40;99.90
24252;DHT22;12380;51.118;4.176;2022-08-21T04:07:59;14.40;99.90
24252;DHT22;12380;51.118;4.176;2022-08-21T04:10:26;14.40;99.90
24252;DHT22;12380;51.118;4.176;2022-08-21T04:12:52;14.40;99.90
24252;DHT22;12380;51.118;4.176;2022-08-21T04:15:18;14.30;99.90
24252;DHT22;12380;51.118;4.176;2022-08-21T04:17:44;14.30;99.90
24252;DHT22;12380;51.118;4.176;2022-08-21T04:20:13;14.40;99.90
24252;DHT22;12380;51.118;4.176;2022-08-21T04:22:38;14.50;99.90
24252;DHT22;12380;51.118;4.176;2022-08-21T04:25:05;14.60;99.90
24252;DHT22;12380;51.118;4.176;2022-08-21T04:27:30;14.60;99.90
24252;DHT22;12380;51.118;4.176;2022-08-21T04:29:56;14.50;99.90
24252;DHT22;12380;51.118;4.176;2022-08-21T04:32:25;14.40;99.90
24252;DHT22;12380;51.118;4.176;2022-08-21T04:34:57;14.40;99.90
24252;DHT22;12380;51.118;4.176;2022-08-21T04:37:23;14.30;99.90
24252;DHT22;12380;51.118;4.176;2022-08-21T04:39:49;14.20;99.90
24252;DHT22;12380;51.118;4.176;2022-08-21T04:42:15;14.30;99.90
24252;DHT22;12380;51.118;4.176;2022-08-21T04:44:41;14.30;99.90
24252;DHT22;12380;51.118;4.176;2022-08-21T04:47:09;14.30;99.90
24252;DHT22;12380;51.118;4.176;2022-08-21T04:49:35;14.30;99.90
24252;DHT22;12380;51.118;4.176;2022-08-21T04:52:02;14.40;99.90
24252;DHT22;12380;51.118;4.176;2022-08-21T04:54:28;14.40;99.90
24252;DHT22;12380;51.118;4.176;2022-08-21T04:56:59;14.30;99.90
24252;DHT22;12380;51.118;4.176;2022-08-21T04:59:33;14.40;99.90
24252;DHT22;12380;51.118;4.176;2022-08-21T05:02:00;14.50;99.90
24252;DHT22;12380;51.118;4.176;2022-08-21T05:04:28;14.50;99.90
24252;DHT22;12380;51.118;4.176;2022-08-21T05:06:56;14.40;99.90
24252;DHT22;12380;51.118;4.176;2022-08-21T05:09:22;14.40;99.90
24252;DHT22;12380;51.118;4.176;2022-08-21T05:11:48;14.40;99.90
24252;DHT22;12380;51.118;4.176;2022-08-21T05:14:17;14.60;99.90
24252;DHT22;12380;51.118;4.176;2022-08-21T05:16:43;14.60;99.90
24252;DHT22;12380;51.118;4.176;2022-08-21T05:19:10;14.60;99.90
24252;DHT22;12380;51.118;4.176;2022-08-21T05:21:36;14.50;99.90
24252;DHT22;12380;51.118;4.176;2022-08-21T05:24:03;14.70;99.90
24252;DHT22;12380;51.118;4.176;2022-08-21T05:26:29;14.70;99.90
24252;DHT22;12380;51.118;4.176;2022-08-21T05:28:55;14.80;99.90
24252;DHT22;12380;51.118;4.176;2022-08-21T05:31:21;14.80;99.90
24252;DHT22;12380;51.118;4.176;2022-08-21T05:33:47;14.80;99.90
24252;DHT22;12380;51.118;4.176;2022-08-21T05:36:13;14.90;99.90
24252;DHT22;12380;51.118;4.176;2022-08-21T05:38:39;15.00;99.90
24252;DHT22;12380;51.118;4.176;2022-08-21T05:41:07;15.00;99.90
24252;DHT22;12380;51.118;4.176;2022-08-21T05:43:33;14.90;99.90
24252;DHT22;12380;51.118;4.176;2022-08-21T05:46:04;15.00;99.90
24252;DHT22;12380;51.118;4.176;2022-08-21T05:48:31;14.90;99.90
24252;DHT22;12380;51.118;4.176;2022-08-21T05:50:57;14.90;99.90
24252;DHT22;12380;51.118;4.176;2022-08-21T05:53:24;15.00;99.90
24252;DHT22;12380;51.118;4.176;2022-08-21T05:55:51;15.20;99.90
24252;DHT22;12380;51.118;4.176;2022-08-21T05:58:18;15.30;99.90
24252;DHT22;12380;51.118;4.176;2022-08-21T06:00:45;15.10;99.90
24252;DHT22;12380;51.118;4.176;2022-08-21T06:03:22;15.20;99.90
24252;DHT22;12380;51.118;4.176;2022-08-21T06:05:48;15.40;99.90
24252;DHT22;12380;51.118;4.176;2022-08-21T06:08:15;15.50;99.90
24252;DHT22;12380;51.118;4.176;2022-08-21T06:10:41;15.50;99.90
24252;DHT22;12380;51.118;4.176;2022-08-21T06:13:07;15.60;99.90
24252;DHT22;12380;51.118;4.176;2022-08-21T06:15:33;15.70;99.90
24252;DHT22;12380;51.118;4.176;2022-08-21T06:17:59;16.00;99.90
24252;DHT22;12380;51.118;4.176;2022-08-21T06:20:25;16.10;99.90
24252;DHT22;12380;51.118;4.176;2022-08-21T06:22:51;16.00;99.90
24252;DHT22;12380;51.118;4.176;2022-08-21T06:25:16;16.20;99.90
24252;DHT22;12380;51.118;4.176;2022-08-21T06:27:43;16.20;99.90
24252;DHT22;12380;51.118;4.176;2022-08-21T06:30:10;16.20;99.90
24252;DHT22;12380;51.118;4.176;2022-08-21T06:32:36;16.40;99.90
24252;DHT22;12380;51.118;4.176;2022-08-21T06:35:02;16.50;99.90
24252;DHT22;12380;51.118;4.176;2022-08-21T06:37:29;16.70;99.90
24252;DHT22;12380;51.118;4.176;2022-08-21T06:39:54;17.00;99.90
24252;DHT22;12380;51.118;4.176;2022-08-21T06:42:20;17.20;99.90
24252;DHT22;12380;51.118;4.176;2022-08-21T06:44:45;17.30;99.90
24252;DHT22;12380;51.118;4.176;2022-08-21T06:47:11;17.60;99.90
24252;DHT22;12380;51.118;4.176;2022-08-21T06:49:37;17.80;99.90
24252;DHT22;12380;51.118;4.176;2022-08-21T06:52:02;17.90;99.90
24252;DHT22;12380;51.118;4.176;2022-08-21T06:54:31;18.50;99.90
24252;DHT22;12380;51.118;4.176;2022-08-21T06:56:59;18.30;99.90
24252;DHT22;12380;51.118;4.176;2022-08-21T06:59:25;18.60;99.90
24252;DHT22;12380;51.118;4.176;2022-08-21T07:01:53;18.60;99.90
24252;DHT22;12380;51.118;4.176;2022-08-21T07:04:18;19.00;99.90
24252;DHT22;12380;51.118;4.176;2022-08-21T07:06:47;19.30;99.90
24252;DHT22;12380;51.118;4.176;2022-08-21T07:09:13;19.70;99.90
24252;DHT22;12380;51.118;4.176;2022-08-21T07:11:39;19.80;99.90
24252;DHT22;12380;51.118;4.176;2022-08-21T07:14:04;20.30;99.90
24252;DHT22;12380;51.118;4.176;2022-08-21T07:16:31;20.70;53.60
24252;DHT22;12380;51.118;4.176;2022-08-21T07:18:59;20.90;49.90
24252;DHT22;12380;51.118;4.176;2022-08-21T07:21:24;21.00;20.40
24252;DHT22;12380;51.118;4.176;2022-08-21T07:23:50;21.20;54.40
24252;DHT22;12380;51.118;4.176;2022-08-21T07:26:18;21.40;15.60
24252;DHT22;12380;51.118;4.176;2022-08-21T07:28:44;21.60;1.00
24252;DHT22;12380;51.118;4.176;2022-08-21T07:31:10;21.70;13.10
24252;DHT22;12380;51.118;4.176;2022-08-21T07:33:38;22.20;1.00
24252;DHT22;12380;51.118;4.176;2022-08-21T07:36:04;22.20;1.00
24252;DHT22;12380;51.118;4.176;2022-08-21T07:38:30;22.50;1.00
24252;DHT22;12380;51.118;4.176;2022-08-21T07:40:56;23.00;1.00
24252;DHT22;12380;51.118;4.176;2022-08-21T07:43:24;23.10;1.00
24252;DHT22;12380;51.118;4.176;2022-08-21T07:45:49;23.00;1.00
24252;DHT22;12380;51.118;4.176;2022-08-21T07:48:16;23.50;1.00
24252;DHT22;12380;51.118;4.176;2022-08-21T07:50:42;23.30;1.00
24252;DHT22;12380;51.118;4.176;2022-08-21T07:53:08;23.00;1.00
24252;DHT22;12380;51.118;4.176;2022-08-21T07:55:34;23.10;1.00
24252;DHT22;12380;51.118;4.176;2022-08-21T07:58:00;23.70;1.00
24252;DHT22;12380;51.118;4.176;2022-08-21T08:00:26;23.70;1.00
24252;DHT22;12380;51.118;4.176;2022-08-21T08:02:54;23.60;1.00
24252;DHT22;12380;51.118;4.176;2022-08-21T08:05:21;23.40;1.00
24252;DHT22;12380;51.118;4.176;2022-08-21T08:07:47;23.40;1.00
24252;DHT22;12380;51.118;4.176;2022-08-21T08:10:16;23.10;1.00
24252;DHT22;12380;51.118;4.176;2022-08-21T08:12:42;23.50;1.00
24252;DHT22;12380;51.118;4.176;2022-08-21T08:15:09;23.80;1.00
24252;DHT22;12380;51.118;4.176;2022-08-21T08:17:36;23.80;1.00
24252;DHT22;12380;51.118;4.176;2022-08-21T08:20:04;23.60;1.00
24252;DHT22;12380;51.118;4.176;2022-08-21T08:22:30;24.10;1.00
24252;DHT22;12380;51.118;4.176;2022-08-21T08:24:58;23.60;1.00
24252;DHT22;12380;51.118;4.176;2022-08-21T08:27:25;24.10;1.00
24252;DHT22;12380;51.118;4.176;2022-08-21T08:29:50;24.70;1.00
24252;DHT22;12380;51.118;4.176;2022-08-21T08:32:16;24.10;1.00
24252;DHT22;12380;51.118;4.176;2022-08-21T08:34:42;23.80;99.90
24252;DHT22;12380;51.118;4.176;2022-08-21T08:37:09;23.60;1.00
24252;DHT22;12380;51.118;4.176;2022-08-21T08:39:35;24.10;99.90
24252;DHT22;12380;51.118;4.176;2022-08-21T08:42:05;24.20;99.90
24252;DHT22;12380;51.118;4.176;2022-08-21T08:44:33;24.40;99.90
24252;DHT22;12380;51.118;4.176;2022-08-21T08:46:59;24.50;1.20
24252;DHT22;12380;51.118;4.176;2022-08-21T08:49:31;24.50;99.90
24252;DHT22;12380;51.118;4.176;2022-08-21T08:54:45;24.30;1.00
24252;DHT22;12380;51.118;4.176;2022-08-21T08:57:14;24.40;31.60
24252;DHT22;12380;51.118;4.176;2022-08-21T08:59:42;24.80;99.90
24252;DHT22;12380;51.118;4.176;2022-08-21T09:02:09;25.90;1.00
24252;DHT22;12380;51.118;4.176;2022-08-21T09:04:36;25.80;1.00
24252;DHT22;12380;51.118;4.176;2022-08-21T09:09:51;25.70;1.00
24252;DHT22;12380;51.118;4.176;2022-08-21T09:15:20;24.80;1.00
24252;DHT22;12380;51.118;4.176;2022-08-21T09:23:42;24.70;1.00
24252;DHT22;12380;51.118;4.176;2022-08-21T09:26:16;24.80;99.90
24252;DHT22;12380;51.118;4.176;2022-08-21T09:28:45;24.80;1.00
24252;DHT22;12380;51.118;4.176;2022-08-21T09:31:33;24.60;1.00
24252;DHT22;12380;51.118;4.176;2022-08-21T09:34:00;24.30;99.90
24252;DHT22;12380;51.118;4.176;2022-08-21T09:36:45;23.80;99.90
24252;DHT22;12380;51.118;4.176;2022-08-21T09:39:13;23.50;99.90
24252;DHT22;12380;51.118;4.176;2022-08-21T09:41:49;23.90;99.90
24252;DHT22;12380;51.118;4.176;2022-08-21T09:44:24;24.50;1.00
24252;DHT22;12380;51.118;4.176;2022-08-21T09:46:50;24.80;1.00
24252;DHT22;12380;51.118;4.176;2022-08-21T09:49:26;24.70;1.00
24252;DHT22;12380;51.118;4.176;2022-08-21T09:51:52;24.50;1.00
24252;DHT22;12380;51.118;4.176;2022-08-21T09:54:19;23.90;1.00
24252;DHT22;12380;51.118;4.176;2022-08-21T09:59:37;23.80;1.00
24252;DHT22;12380;51.118;4.176;2022-08-21T10:02:14;23.70;1.00
24252;DHT22;12380;51.118;4.176;2022-08-21T10:04:49;23.90;1.00
24252;DHT22;12380;51.118;4.176;2022-08-21T10:07:19;24.50;99.90
24252;DHT22;12380;51.118;4.176;2022-08-21T10:09:44;24.90;1.00
24252;DHT22;12380;51.118;4.176;2022-08-21T10:17:24;26.00;1.00
24252;DHT22;12380;51.118;4.176;2022-08-21T10:19:56;24.90;1.00
24252;DHT22;12380;51.118;4.176;2022-08-21T10:25:12;25.10;1.00
24252;DHT22;12380;51.118;4.176;2022-08-21T10:30:15;24.60;1.00
24252;DHT22;12380;51.118;4.176;2022-08-21T10:32:58;24.80;99.90
24252;DHT22;12380;51.118;4.176;2022-08-21T10:35:28;24.60;12.00
24252;DHT22;12380;51.118;4.176;2022-08-21T10:43:31;23.90;1.00
24252;DHT22;12380;51.118;4.176;2022-08-21T10:48:50;24.70;1.00
24252;DHT22;12380;51.118;4.176;2022-08-21T10:51:21;25.00;99.90
24252;DHT22;12380;51.118;4.176;2022-08-21T10:53:55;25.80;99.90
24252;DHT22;12380;51.118;4.176;2022-08-21T10:56:26;25.80;1.00
24252;DHT22;12380;51.118;4.176;2022-08-21T10:59:03;25.40;99.90
24252;DHT22;12380;51.118;4.176;2022-08-21T11:01:34;25.80;1.00
24252;DHT22;12380;51.118;4.176;2022-08-21T11:04:11;25.70;1.00
24252;DHT22;12380;51.118;4.176;2022-08-21T11:06:37;26.50;99.90
24252;DHT22;12380;51.118;4.176;2022-08-21T11:09:12;26.20;1.00
24252;DHT22;12380;51.118;4.176;2022-08-21T11:11:41;26.60;1.00
24252;DHT22;12380;51.118;4.176;2022-08-21T11:14:13;25.80;1.00
24252;DHT22;12380;51.118;4.176;2022-08-21T11:19:25;25.50;1.00
24252;DHT22;12380;51.118;4.176;2022-08-21T11:24:23;25.30;1.00
24252;DHT22;12380;51.118;4.176;2022-08-21T11:27:06;25.70;99.90
24252;DHT22;12380;51.118;4.176;2022-08-21T11:29:36;26.00;1.00
24252;DHT22;12380;51.118;4.176;2022-08-21T11:37:42;26.20;99.90
24252;DHT22;12380;51.118;4.176;2022-08-21T11:40:12;26.00;99.90
24252;DHT22;12380;51.118;4.176;2022-08-21T11:50:14;27.20;99.90
24252;DHT22;12380;51.118;4.176;2022-08-21T11:52:51;27.60;1.00
24252;DHT22;12380;51.118;4.176;2022-08-21T11:55:22;27.00;1.00
24252;DHT22;12380;51.118;4.176;2022-08-21T12:02:45;27.30;34.10
24252;DHT22;12380;51.118;4.176;2022-08-21T12:05:22;28.00;1.00
24252;DHT22;12380;51.118;4.176;2022-08-21T12:07:48;28.00;1.00
24252;DHT22;12380;51.118;4.176;2022-08-21T12:10:30;27.80;1.00
24252;DHT22;12380;51.118;4.176;2022-08-21T12:13:05;28.10;1.00
24252;DHT22;12380;51.118;4.176;2022-08-21T12:15:31;28.50;1.00
24252;DHT22;12380;51.118;4.176;2022-08-21T12:18:02;28.10;1.00
24252;DHT22;12380;51.118;4.176;2022-08-21T12:25:36;27.20;1.00
24252;DHT22;12380;51.118;4.176;2022-08-21T12:28:02;26.70;1.00
24252;DHT22;12380;51.118;4.176;2022-08-21T12:30:38;26.60;1.00
24252;DHT22;12380;51.118;4.176;2022-08-21T12:35:42;25.70;1.00
24252;DHT22;12380;51.118;4.176;2022-08-21T12:40:42;25.80;1.00
24252;DHT22;12380;51.118;4.176;2022-08-21T12:43:15;25.90;1.00
24252;DHT22;12380;51.118;4.176;2022-08-21T12:45:46;25.50;99.90
24252;DHT22;12380;51.118;4.176;2022-08-21T12:48:14;25.20;1.00
24252;DHT22;12380;51.118;4.176;2022-08-21T12:50:50;25.30;1.00
24252;DHT22;12380;51.118;4.176;2022-08-21T12:55:42;26.10;1.00
24252;DHT22;12380;51.118;4.176;2022-08-21T12:58:22;26.20;1.00
24252;DHT22;12380;51.118;4.176;2022-08-21T13:01:12;25.80;99.90
24252;DHT22;12380;51.118;4.176;2022-08-21T13:03:34;25.30;99.90
24252;DHT22;12380;51.118;4.176;2022-08-21T13:06:00;25.50;1.00
24252;DHT22;12380;51.118;4.176;2022-08-21T13:08:28;25.60;1.00
24252;DHT22;12380;51.118;4.176;2022-08-21T13:11:04;25.90;1.00
24252;DHT22;12380;51.118;4.176;2022-08-21T13:13:30;26.00;1.00
24252;DHT22;12380;51.118;4.176;2022-08-21T13:15:57;25.90;1.00
24252;DHT22;12380;51.118;4.176;2022-08-21T13:18:27;25.80;99.90
24252;DHT22;12380;51.118;4.176;2022-08-21T13:21:03;25.20;1.00
24252;DHT22;12380;51.118;4.176;2022-08-21T13:23:29;25.00;1.00
24252;DHT22;12380;51.118;4.176;2022-08-21T13:25:56;25.30;99.90
24252;DHT22;12380;51.118;4.176;2022-08-21T13:28:22;25.60;1.00
24252;DHT22;12380;51.118;4.176;2022-08-21T13:30:49;26.20;1.00
24252;DHT22;12380;51.118;4.176;2022-08-21T13:33:16;26.10;99.90
24252;DHT22;12380;51.118;4.176;2022-08-21T13:35:47;26.20;99.90
24252;DHT22;12380;51.118;4.176;2022-08-21T13:38:13;26.30;1.00
24252;DHT22;12380;51.118;4.176;2022-08-21T13:40:44;26.10;99.90
24252;DHT22;12380;51.118;4.176;2022-08-21T13:43:20;25.50;99.90
24252;DHT22;12380;51.118;4.176;2022-08-21T13:45:50;24.90;1.00
24252;DHT22;12380;51.118;4.176;2022-08-21T13:48:18;25.00;1.00
24252;DHT22;12380;51.118;4.176;2022-08-21T13:50:45;25.20;1.00
24252;DHT22;12380;51.118;4.176;2022-08-21T13:55:55;25.50;1.00
24252;DHT22;12380;51.118;4.176;2022-08-21T13:58:25;26.00;90.10
24252;DHT22;12380;51.118;4.176;2022-08-21T14:00:54;26.50;1.00
24252;DHT22;12380;51.118;4.176;2022-08-21T14:03:34;27.50;99.90
24252;DHT22;12380;51.118;4.176;2022-08-21T14:06:00;27.80;1.00
24252;DHT22;12380;51.118;4.176;2022-08-21T14:10:51;27.20;1.00
24252;DHT22;12380;51.118;4.176;2022-08-21T14:15:46;26.00;1.00
24252;DHT22;12380;51.118;4.176;2022-08-21T14:18:19;25.90;99.90
24252;DHT22;12380;51.118;4.176;2022-08-21T14:20:46;26.30;99.90
24252;DHT22;12380;51.118;4.176;2022-08-21T14:23:22;26.00;99.90
24252;DHT22;12380;51.118;4.176;2022-08-21T14:25:49;26.20;99.90
24252;DHT22;12380;51.118;4.176;2022-08-21T14:30:43;26.20;49.40
24252;DHT22;12380;51.118;4.176;2022-08-21T14:33:09;26.10;1.00
24252;DHT22;12380;51.118;4.176;2022-08-21T14:35:36;26.10;99.90
24252;DHT22;12380;51.118;4.176;2022-08-21T14:38:02;26.10;1.00
24252;DHT22;12380;51.118;4.176;2022-08-21T14:40:28;26.00;99.90
24252;DHT22;12380;51.118;4.176;2022-08-21T14:42:58;25.90;52.00
24252;DHT22;12380;51.118;4.176;2022-08-21T14:45:28;26.00;1.00
24252;DHT22;12380;51.118;4.176;2022-08-21T14:47:54;26.00;99.90
24252;DHT22;12380;51.118;4.176;2022-08-21T14:50:21;26.10;99.90
24252;DHT22;12380;51.118;4.176;2022-08-21T14:52:46;25.90;99.90
24252;DHT22;12380;51.118;4.176;2022-08-21T14:55:13;25.80;1.00
24252;DHT22;12380;51.118;4.176;2022-08-21T14:57:40;25.70;99.90
24252;DHT22;12380;51.118;4.176;2022-08-21T15:00:05;25.60;28.70
24252;DHT22;12380;51.118;4.176;2022-08-21T15:02:32;26.00;1.00
24252;DHT22;12380;51.118;4.176;2022-08-21T15:04:58;26.30;1.00
24252;DHT22;12380;51.118;4.176;2022-08-21T15:07:24;26.50;99.90
24252;DHT22;12380;51.118;4.176;2022-08-21T15:09:50;26.30;99.90
24252;DHT22;12380;51.118;4.176;2022-08-21T15:12:15;26.10;1.00
24252;DHT22;12380;51.118;4.176;2022-08-21T15:14:41;26.20;99.90
24252;DHT22;12380;51.118;4.176;2022-08-21T15:17:08;26.50;99.90
24252;DHT22;12380;51.118;4.176;2022-08-21T15:19:35;26.40;1.00
24252;DHT22;12380;51.118;4.176;2022-08-21T15:22:01;26.20;1.00
24252;DHT22;12380;51.118;4.176;2022-08-21T15:24:30;26.30;93.40
24252;DHT22;12380;51.118;4.176;2022-08-21T15:26:55;26.40;99.90
24252;DHT22;12380;51.118;4.176;2022-08-21T15:29:22;26.00;99.90
24252;DHT22;12380;51.118;4.176;2022-08-21T15:31:59;26.10;99.90
24252;DHT22;12380;51.118;4.176;2022-08-21T15:34:26;26.20;1.00
24252;DHT22;12380;51.118;4.176;2022-08-21T15:36:52;26.10;99.90
24252;DHT22;12380;51.118;4.176;2022-08-21T15:39:18;26.20;99.90
24252;DHT22;12380;51.118;4.176;2022-08-21T15:41:44;26.20;99.90
24252;DHT22;12380;51.118;4.176;2022-08-21T15:44:11;26.30;1.00
24252;DHT22;12380;51.118;4.176;2022-08-21T15:46:37;26.10;1.00
24252;DHT22;12380;51.118;4.176;2022-08-21T15:49:03;25.80;1.00
24252;DHT22;12380;51.118;4.176;2022-08-21T15:51:28;25.70;99.90
24252;DHT22;12380;51.118;4.176;2022-08-21T15:53:56;25.70;1.00
24252;DHT22;12380;51.118;4.176;2022-08-21T15:56:27;25.60;99.90
24252;DHT22;12380;51.118;4.176;2022-08-21T15:58:59;25.60;99.90
24252;DHT22;12380;51.118;4.176;2022-08-21T16:01:28;25.60;1.00
24252;DHT22;12380;51.118;4.176;2022-08-21T16:03:55;25.60;99.90
24252;DHT22;12380;51.118;4.176;2022-08-21T16:06:21;25.60;1.00
24252;DHT22;12380;51.118;4.176;2022-08-21T16:08:48;25.00;99.90
24252;DHT22;12380;51.118;4.176;2022-08-21T16:11:15;25.10;45.60
24252;DHT22;12380;51.118;4.176;2022-08-21T16:13:42;25.00;1.00
24252;DHT22;12380;51.118;4.176;2022-08-21T16:16:11;25.00;99.90
24252;DHT22;12380;51.118;4.176;2022-08-21T16:18:38;25.10;99.90
24252;DHT22;12380;51.118;4.176;2022-08-21T16:21:04;25.10;99.90
24252;DHT22;12380;51.118;4.176;2022-08-21T16:23:33;25.00;1.00
24252;DHT22;12380;51.118;4.176;2022-08-21T16:26:00;24.90;99.90
24252;DHT22;12380;51.118;4.176;2022-08-21T16:28:26;24.80;1.00
24252;DHT22;12380;51.118;4.176;2022-08-21T16:30:52;24.80;99.90
24252;DHT22;12380;51.118;4.176;2022-08-21T16:33:22;24.80;99.90
24252;DHT22;12380;51.118;4.176;2022-08-21T16:35:50;24.80;99.90
24252;DHT22;12380;51.118;4.176;2022-08-21T16:38:16;24.70;1.00
24252;DHT22;12380;51.118;4.176;2022-08-21T16:40:42;24.90;1.00
24252;DHT22;12380;51.118;4.176;2022-08-21T16:43:10;24.80;99.90
24252;DHT22;12380;51.118;4.176;2022-08-21T16:45:37;25.00;1.00
24252;DHT22;12380;51.118;4.176;2022-08-21T16:48:05;25.10;1.00
24252;DHT22;12380;51.118;4.176;2022-08-21T16:50:34;25.20;99.90
24252;DHT22;12380;51.118;4.176;2022-08-21T16:53:02;25.30;99.90
24252;DHT22;12380;51.118;4.176;2022-08-21T16:55:28;25.40;1.00
24252;DHT22;12380;51.118;4.176;2022-08-21T16:57:54;25.60;34.70
24252;DHT22;12380;51.118;4.176;2022-08-21T17:00:21;25.80;30.00